sensor_id;sensor_type;location;lat;lon;timestamp;temperature;humidity
39103;DHT22;24847;48.218;16.414;2022-11-15T00:01:06;6.60;99.90
39103;DHT22;24847;48.218;16.414;2022-11-15T00:06:10;6.40;99.90
39103;DHT22;24847;48.218;16.414;2022-11-15T00:11:13;6.50;99.90
39103;DHT22;24847;48.218;16.414;2022-11-15T00:16:16;6.60;99.90
39103;DHT22;24847;48.218;16.414;2022-11-15T00:21:19;6.50;99.90
39103;DHT22;24847;48.218;16.414;2022-11-15T00:26:22;6.40;99.90
39103;DHT22;24847;48.218;16.414;2022-11-15T00:31:24;6.50;99.90
39103;DHT22;24847;48.218;16.414;2022-11-15T00:36:28;6.60;99.90
39103;DHT22;24847;48.218;16.414;2022-11-15T00:41:30;6.60;99.90
39103;DHT22;24847;48.218;16.414;2022-11-15T00:46:33;6.60;99.90
39103;DHT22;24847;48.218;16.414;2022-11-15T00:51:36;6.50;99.90
39103;DHT22;24847;48.218;16.414;2022-11-15T00:56:39;6.60;99.90
39103;DHT22;24847;48.218;16.414;2022-11-15T01:01:41;6.70;99.90
39103;DHT22;24847;48.218;16.414;2022-11-15T01:06:45;6.70;99.90
39103;DHT22;24847;48.218;16.414;2022-11-15T01:11:47;6.70;99.90
39103;DHT22;24847;48.218;16.414;2022-11-15T01:16:50;6.70;99.90
39103;DHT22;24847;48.218;16.414;2022-11-15T01:21:53;6.70;99.90
39103;DHT22;24847;48.218;16.414;2022-11-15T01:26:56;6.70;99.90
39103;DHT22;24847;48.218;16.414;2022-11-15T01:31:58;6.70;99.90
39103;DHT22;24847;48.218;16.414;2022-11-15T01:37:02;6.70;99.90
39103;DHT22;24847;48.218;16.414;2022-11-15T01:42:04;6.70;99.90
39103;DHT22;24847;48.218;16.414;2022-11-15T01:47:09;6.80;99.90
39103;DHT22;24847;48.218;16.414;2022-11-15T01:52:17;6.70;99.90
39103;DHT22;24847;48.218;16.414;2022-11-15T01:57:21;6.60;99.90
39103;DHT22;24847;48.218;16.414;2022-11-15T02:02:24;6.60;99.90
39103;DHT22;24847;48.218;16.414;2022-11-15T02:07:28;6.60;99.90
39103;DHT22;24847;48.218;16.414;2022-11-15T02:12:31;6.60;99.90
39103;DHT22;24847;48.218;16.414;2022-11-15T02:17:47;6.70;99.90
39103;DHT22;24847;48.218;16.414;2022-11-15T02:23:15;6.70;99.90
39103;DHT22;24847;48.218;16.414;2022-11-15T02:28:45;6.70;99.90
39103;DHT22;24847;48.218;16.414;2022-11-15T02:34:02;6.70;99.90
39103;DHT22;24847;48.218;16.414;2022-11-15T02:39:11;6.80;99.90
39103;DHT22;24847;48.218;16.414;2022-11-15T02:44:21;6.80;99.90
39103;DHT22;24847;48.218;16.414;2022-11-15T02:49:29;6.90;99.90
39103;DHT22;24847;48.218;16.414;2022-11-15T02:54:34;6.90;99.90
39103;DHT22;24847;48.218;16.414;2022-11-15T02:59:56;6.80;99.90
39103;DHT22;24847;48.218;16.414;2022-11-15T03:05:14;6.90;99.90
39103;DHT22;24847;48.218;16.414;2022-11-15T03:10:24;6.90;99.90
39103;DHT22;24847;48.218;16.414;2022-11-15T03:15:29;6.80;99.90
39103;DHT22;24847;48.218;16.414;2022-11-15T03:20:36;6.80;99.90
39103;DHT22;24847;48.218;16.414;2022-11-15T03:25:49;6.70;99.90
39103;DHT22;24847;48.218;16.414;2022-11-15T03:30:54;6.70;99.90
39103;DHT22;24847;48.218;16.414;2022-11-15T03:35:59;6.80;99.90
39103;DHT22;24847;48.218;16.414;2022-11-15T03:41:04;6.80;99.90
39103;DHT22;24847;48.218;16.414;2022-11-15T03:46:13;6.60;99.90
39103;DHT22;24847;48.218;16.414;2022-11-15T03:51:18;6.40;99.90
39103;DHT22;24847;48.218;16.414;2022-11-15T03:56:21;6.20;99.90
39103;DHT22;24847;48.218;16.414;2022-11-15T04:01:23;6.20;99.90
39103;DHT22;24847;48.218;16.414;2022-11-15T04:06:27;6.20;99.90
39103;DHT22;24847;48.218;16.414;2022-11-15T04:11:29;6.50;99.90
39103;DHT22;24847;48.218;16.414;2022-11-15T04:16:31;6.70;99.90
39103;DHT22;24847;48.218;16.414;2022-11-15T04:21:35;6.70;99.90
39103;DHT22;24847;48.218;16.414;2022-11-15T04:26:55;6.80;99.90
39103;DHT22;24847;48.218;16.414;2022-11-15T04:31:57;6.80;99.90
39103;DHT22;24847;48.218;16.414;2022-11-15T04:37:01;6.80;99.90
39103;DHT22;24847;48.218;16.414;2022-11-15T04:42:16;6.70;99.90
39103;DHT22;24847;48.218;16.414;2022-11-15T04:47:19;6.80;99.90
39103;DHT22;24847;48.218;16.414;2022-11-15T04:52:22;6.80;99.90
39103;DHT22;24847;48.218;16.414;2022-11-15T04:57:24;6.90;99.90
39103;DHT22;24847;48.218;16.414;2022-11-15T05:02:27;6.80;99.90
39103;DHT22;24847;48.218;16.414;2022-11-15T05:07:51;6.90;99.90
39103;DHT22;24847;48.218;16.414;2022-11-15T05:12:53;6.90;99.90
39103;DHT22;24847;48.218;16.414;2022-11-15T05:17:58;6.80;99.90
39103;DHT22;24847;48.218;16.414;2022-11-15T05:23:02;6.80;99.90
39103;DHT22;24847;48.218;16.414;2022-11-15T05:28:04;6.40;99.90
39103;DHT22;24847;48.218;16.414;2022-11-15T05:33:07;6.40;99.90
39103;DHT22;24847;48.218;16.414;2022-11-15T05:38:11;6.30;99.90
39103;DHT22;24847;48.218;16.414;2022-11-15T05:43:13;6.30;99.90
39103;DHT22;24847;48.218;16.414;2022-11-15T05:48:15;6.30;99.90
39103;DHT22;24847;48.218;16.414;2022-11-15T05:53:21;6.20;99.90
39103;DHT22;24847;48.218;16.414;2022-11-15T05:58:25;6.20;99.90
39103;DHT22;24847;48.218;16.414;2022-11-15T06:03:27;6.20;99.90
39103;DHT22;24847;48.218;16.414;2022-11-15T06:08:31;6.20;99.90
39103;DHT22;24847;48.218;16.414;2022-11-15T06:13:33;6.10;99.90
39103;DHT22;24847;48.218;16.414;2022-11-15T06:18:36;6.10;99.90
39103;DHT22;24847;48.218;16.414;2022-11-15T06:23:40;6.00;99.90
39103;DHT22;24847;48.218;16.414;2022-11-15T06:28:42;6.10;99.90
39103;DHT22;24847;48.218;16.414;2022-11-15T06:33:44;6.10;99.90
39103;DHT22;24847;48.218;16.414;2022-11-15T06:38:51;6.10;99.90
39103;DHT22;24847;48.218;16.414;2022-11-15T06:43:54;6.00;99.90
39103;DHT22;24847;48.218;16.414;2022-11-15T06:48:56;6.00;99.90
39103;DHT22;24847;48.218;16.414;2022-11-15T06:54:00;5.90;99.90
39103;DHT22;24847;48.218;16.414;2022-11-15T06:59:02;6.00;99.90
39103;DHT22;24847;48.218;16.414;2022-11-15T07:04:04;6.10;99.90
39103;DHT22;24847;48.218;16.414;2022-11-15T07:09:08;6.10;99.90
39103;DHT22;24847;48.218;16.414;2022-11-15T07:14:10;6.10;99.90
39103;DHT22;24847;48.218;16.414;2022-11-15T07:19:13;6.10;99.90
39103;DHT22;24847;48.218;16.414;2022-11-15T07:24:17;6.10;99.90
39103;DHT22;24847;48.218;16.414;2022-11-15T07:29:20;6.10;99.90
39103;DHT22;24847;48.218;16.414;2022-11-15T07:34:22;6.10;99.90
39103;DHT22;24847;48.218;16.414;2022-11-15T07:39:25;6.10;99.90
39103;DHT22;24847;48.218;16.414;2022-11-15T07:44:28;6.10;99.90
39103;DHT22;24847;48.218;16.414;2022-11-15T07:49:30;6.20;99.90
39103;DHT22;24847;48.218;16.414;2022-11-15T07:54:34;6.20;99.90
39103;DHT22;24847;48.218;16.414;2022-11-15T07:59:36;6.10;99.90
39103;DHT22;24847;48.218;16.414;2022-11-15T08:04:38;6.00;99.90
39103;DHT22;24847;48.218;16.414;2022-11-15T08:09:42;6.10;99.90
39103;DHT22;24847;48.218;16.414;2022-11-15T08:14:44;6.10;99.90
39103;DHT22;24847;48.218;16.414;2022-11-15T08:19:46;6.10;99.90
39103;DHT22;24847;48.218;16.414;2022-11-15T08:24:50;6.10;99.90
39103;DHT22;24847;48.218;16.414;2022-11-15T08:29:52;6.10;99.90
39103;DHT22;24847;48.218;16.414;2022-11-15T08:34:55;6.00;99.90
39103;DHT22;24847;48.218;16.414;2022-11-15T08:39:59;6.00;99.90
39103;DHT22;24847;48.218;16.414;2022-11-15T08:45:02;6.10;99.90
39103;DHT22;24847;48.218;16.414;2022-11-15T08:50:06;6.10;99.90
39103;DHT22;24847;48.218;16.414;2022-11-15T08:55:10;6.10;99.90
39103;DHT22;24847;48.218;16.414;2022-11-15T09:00:13;6.20;99.90
39103;DHT22;24847;48.218;16.414;2022-11-15T09:05:16;6.20;99.90
39103;DHT22;24847;48.218;16.414;2022-11-15T09:10:20;6.20;99.90
39103;DHT22;24847;48.218;16.414;2022-11-15T09:15:23;6.30;99.90
39103;DHT22;24847;48.218;16.414;2022-11-15T09:20:25;6.50;99.90
39103;DHT22;24847;48.218;16.414;2022-11-15T09:25:29;6.50;99.90
39103;DHT22;24847;48.218;16.414;2022-11-15T09:30:32;6.50;99.90
39103;DHT22;24847;48.218;16.414;2022-11-15T09:35:35;6.40;99.90
39103;DHT22;24847;48.218;16.414;2022-11-15T09:40:39;6.40;99.90
39103;DHT22;24847;48.218;16.414;2022-11-15T09:45:51;6.30;99.90
39103;DHT22;24847;48.218;16.414;2022-11-15T09:51:03;6.30;99.90
39103;DHT22;24847;48.218;16.414;2022-11-15T09:56:14;6.40;99.90
39103;DHT22;24847;48.218;16.414;2022-11-15T10:01:25;6.40;99.90
39103;DHT22;24847;48.218;16.414;2022-11-15T10:06:40;6.50;99.90
39103;DHT22;24847;48.218;16.414;2022-11-15T10:11:46;6.40;99.90
39103;DHT22;24847;48.218;16.414;2022-11-15T10:17:02;6.50;99.90
39103;DHT22;24847;48.218;16.414;2022-11-15T10:22:25;6.80;99.90
39103;DHT22;24847;48.218;16.414;2022-11-15T10:27:30;6.80;99.90
39103;DHT22;24847;48.218;16.414;2022-11-15T10:32:36;7.00;99.90
39103;DHT22;24847;48.218;16.414;2022-11-15T10:37:38;7.10;99.90
39103;DHT22;24847;48.218;16.414;2022-11-15T10:42:42;7.00;99.90
39103;DHT22;24847;48.218;16.414;2022-11-15T10:47:45;7.00;99.90
39103;DHT22;24847;48.218;16.414;2022-11-15T10:52:47;7.00;99.90
39103;DHT22;24847;48.218;16.414;2022-11-15T10:57:52;6.80;99.90
39103;DHT22;24847;48.218;16.414;2022-11-15T11:02:58;6.60;99.90
39103;DHT22;24847;48.218;16.414;2022-11-15T11:08:03;6.60;99.90
39103;DHT22;24847;48.218;16.414;2022-11-15T11:13:21;6.60;99.90
39103;DHT22;24847;48.218;16.414;2022-11-15T11:18:27;6.70;99.90
39103;DHT22;24847;48.218;16.414;2022-11-15T11:23:47;6.80;99.90
39103;DHT22;24847;48.218;16.414;2022-11-15T11:29:02;6.90;99.90
39103;DHT22;24847;48.218;16.414;2022-11-15T11:34:15;6.80;99.90
39103;DHT22;24847;48.218;16.414;2022-11-15T11:39:35;6.90;99.90
39103;DHT22;24847;48.218;16.414;2022-11-15T11:44:55;7.00;99.90
39103;DHT22;24847;48.218;16.414;2022-11-15T11:50:10;7.00;99.90
39103;DHT22;24847;48.218;16.414;2022-11-15T11:55:15;7.10;99.90
39103;DHT22;24847;48.218;16.414;2022-11-15T12:00:23;7.00;99.90
39103;DHT22;24847;48.218;16.414;2022-11-15T12:05:30;7.00;99.90
39103;DHT22;24847;48.218;16.414;2022-11-15T12:10:35;7.10;99.90
39103;DHT22;24847;48.218;16.414;2022-11-15T12:15:45;7.10;99.90
39103;DHT22;24847;48.218;16.414;2022-11-15T12:20:53;7.10;99.90
39103;DHT22;24847;48.218;16.414;2022-11-15T12:26:01;7.20;99.90
39103;DHT22;24847;48.218;16.414;2022-11-15T12:31:12;7.30;99.90
39103;DHT22;24847;48.218;16.414;2022-11-15T12:36:35;7.40;99.90
39103;DHT22;24847;48.218;16.414;2022-11-15T12:41:40;7.30;99.90
39103;DHT22;24847;48.218;16.414;2022-11-15T12:47:24;7.30;99.90
39103;DHT22;24847;48.218;16.414;2022-11-15T12:52:27;7.30;99.90
39103;DHT22;24847;48.218;16.414;2022-11-15T12:57:40;7.30;99.90
39103;DHT22;24847;48.218;16.414;2022-11-15T13:02:45;7.30;99.90
39103;DHT22;24847;48.218;16.414;2022-11-15T13:07:58;7.10;99.90
39103;DHT22;24847;48.218;16.414;2022-11-15T13:13:02;7.20;99.90
39103;DHT22;24847;48.218;16.414;2022-11-15T13:18:28;7.30;99.90
39103;DHT22;24847;48.218;16.414;2022-11-15T13:23:37;7.30;99.90
39103;DHT22;24847;48.218;16.414;2022-11-15T13:28:43;7.40;99.90
39103;DHT22;24847;48.218;16.414;2022-11-15T13:33:48;7.50;99.90
39103;DHT22;24847;48.218;16.414;2022-11-15T13:38:55;7.50;99.90
39103;DHT22;24847;48.218;16.414;2022-11-15T13:44:02;7.50;99.90
39103;DHT22;24847;48.218;16.414;2022-11-15T13:49:09;7.50;99.90
39103;DHT22;24847;48.218;16.414;2022-11-15T13:54:19;7.60;99.90
39103;DHT22;24847;48.218;16.414;2022-11-15T13:59:27;7.70;99.90
39103;DHT22;24847;48.218;16.414;2022-11-15T14:04:32;7.80;99.90
39103;DHT22;24847;48.218;16.414;2022-11-15T14:09:36;7.90;99.90
39103;DHT22;24847;48.218;16.414;2022-11-15T14:14:45;7.90;99.90
39103;DHT22;24847;48.218;16.414;2022-11-15T14:19:49;8.00;99.90
39103;DHT22;24847;48.218;16.414;2022-11-15T14:25:13;7.90;99.90
39103;DHT22;24847;48.218;16.414;2022-11-15T14:30:17;7.90;99.90
39103;DHT22;24847;48.218;16.414;2022-11-15T14:35:22;8.00;99.90
39103;DHT22;24847;48.218;16.414;2022-11-15T14:40:25;8.00;99.90
39103;DHT22;24847;48.218;16.414;2022-11-15T14:45:28;8.00;99.90
39103;DHT22;24847;48.218;16.414;2022-11-15T14:50:32;8.10;99.90
39103;DHT22;24847;48.218;16.414;2022-11-15T14:55:35;8.10;99.90
39103;DHT22;24847;48.218;16.414;2022-11-15T15:00:39;8.10;99.90
39103;DHT22;24847;48.218;16.414;2022-11-15T15:05:44;8.10;99.90
39103;DHT22;24847;48.218;16.414;2022-11-15T15:10:46;8.10;99.90
39103;DHT22;24847;48.218;16.414;2022-11-15T15:15:49;8.10;99.90
39103;DHT22;24847;48.218;16.414;2022-11-15T15:20:56;8.10;99.90
39103;DHT22;24847;48.218;16.414;2022-11-15T15:26:00;8.10;99.90
39103;DHT22;24847;48.218;16.414;2022-11-15T15:31:03;8.10;99.90
39103;DHT22;24847;48.218;16.414;2022-11-15T15:36:09;8.20;99.90
39103;DHT22;24847;48.218;16.414;2022-11-15T15:41:14;8.20;99.90
39103;DHT22;24847;48.218;16.414;2022-11-15T15:46:18;8.20;99.90
39103;DHT22;24847;48.218;16.414;2022-11-15T15:51:22;8.10;99.90
39103;DHT22;24847;48.218;16.414;2022-11-15T15:56:24;8.00;99.90
39103;DHT22;24847;48.218;16.414;2022-11-15T16:01:26;8.10;99.90
39103;DHT22;24847;48.218;16.414;2022-11-15T16:06:38;8.10;99.90
39103;DHT22;24847;48.218;16.414;2022-11-15T16:11:45;8.00;99.90
39103;DHT22;24847;48.218;16.414;2022-11-15T16:16:48;8.00;99.90
39103;DHT22;24847;48.218;16.414;2022-11-15T16:21:52;7.90;99.90
39103;DHT22;24847;48.218;16.414;2022-11-15T16:26:54;7.90;99.90
39103;DHT22;24847;48.218;16.414;2022-11-15T16:31:57;7.80;99.90
39103;DHT22;24847;48.218;16.414;2022-11-15T16:37:01;7.90;99.90
39103;DHT22;24847;48.218;16.414;2022-11-15T16:42:03;8.00;99.90
39103;DHT22;24847;48.218;16.414;2022-11-15T16:47:14;8.10;99.90
39103;DHT22;24847;48.218;16.414;2022-11-15T16:52:20;8.10;99.90
39103;DHT22;24847;48.218;16.414;2022-11-15T16:57:23;8.00;99.90
39103;DHT22;24847;48.218;16.414;2022-11-15T17:02:25;8.10;99.90
39103;DHT22;24847;48.218;16.414;2022-11-15T17:07:29;8.10;99.90
39103;DHT22;24847;48.218;16.414;2022-11-15T17:12:31;8.10;99.90
39103;DHT22;24847;48.218;16.414;2022-11-15T17:17:34;8.40;99.90
39103;DHT22;24847;48.218;16.414;2022-11-15T17:22:38;8.30;99.90
39103;DHT22;24847;48.218;16.414;2022-11-15T17:27:40;8.30;99.90
39103;DHT22;24847;48.218;16.414;2022-11-15T17:32:45;8.20;99.90
39103;DHT22;24847;48.218;16.414;2022-11-15T17:37:51;8.20;99.90
39103;DHT22;24847;48.218;16.414;2022-11-15T17:42:54;8.20;99.90
39103;DHT22;24847;48.218;16.414;2022-11-15T17:47:57;8.20;99.90
39103;DHT22;24847;48.218;16.414;2022-11-15T17:53:00;8.10;99.90
39103;DHT22;24847;48.218;16.414;2022-11-15T17:58:03;8.10;99.90
39103;DHT22;24847;48.218;16.414;2022-11-15T18:03:06;8.20;99.90
39103;DHT22;24847;48.218;16.414;2022-11-15T18:08:11;8.20;99.90
39103;DHT22;24847;48.218;16.414;2022-11-15T18:13:17;8.20;99.90
39103;DHT22;24847;48.218;16.414;2022-11-15T18:18:20;8.30;99.90
39103;DHT22;24847;48.218;16.414;2022-11-15T18:23:24;8.10;99.90
39103;DHT22;24847;48.218;16.414;2022-11-15T18:28:31;8.00;99.90
39103;DHT22;24847;48.218;16.414;2022-11-15T18:33:35;8.00;99.90
39103;DHT22;24847;48.218;16.414;2022-11-15T18:38:40;7.90;99.90
39103;DHT22;24847;48.218;16.414;2022-11-15T18:43:45;7.90;99.90
39103;DHT22;24847;48.218;16.414;2022-11-15T18:48:51;7.90;99.90
39103;DHT22;24847;48.218;16.414;2022-11-15T18:54:01;7.80;99.90
39103;DHT22;24847;48.218;16.414;2022-11-15T18:59:04;7.90;99.90
39103;DHT22;24847;48.218;16.414;2022-11-15T19:04:10;8.10;99.90
39103;DHT22;24847;48.218;16.414;2022-11-15T19:09:17;8.10;99.90
39103;DHT22;24847;48.218;16.414;2022-11-15T19:14:21;8.10;99.90
39103;DHT22;24847;48.218;16.414;2022-11-15T19:19:26;8.10;99.90
39103;DHT22;24847;48.218;16.414;2022-11-15T19:24:32;8.10;99.90
39103;DHT22;24847;48.218;16.414;2022-11-15T19:29:34;8.10;99.90
39103;DHT22;24847;48.218;16.414;2022-11-15T19:34:39;8.20;99.90
39103;DHT22;24847;48.218;16.414;2022-11-15T19:39:44;8.10;99.90
39103;DHT22;24847;48.218;16.414;2022-11-15T19:44:47;8.30;99.90
39103;DHT22;24847;48.218;16.414;2022-11-15T19:49:51;8.30;99.90
39103;DHT22;24847;48.218;16.414;2022-11-15T19:54:55;8.40;99.90
39103;DHT22;24847;48.218;16.414;2022-11-15T19:59:59;8.30;99.90
39103;DHT22;24847;48.218;16.414;2022-11-15T20:05:03;8.20;99.90
39103;DHT22;24847;48.218;16.414;2022-11-15T20:10:08;8.20;99.90
39103;DHT22;24847;48.218;16.414;2022-11-15T20:15:11;8.20;99.90
39103;DHT22;24847;48.218;16.414;2022-11-15T20:20:15;8.20;99.90
39103;DHT22;24847;48.218;16.414;2022-11-15T20:25:20;8.00;99.90
39103;DHT22;24847;48.218;16.414;2022-11-15T20:30:26;8.00;99.90
39103;DHT22;24847;48.218;16.414;2022-11-15T20:35:30;8.10;99.90
39103;DHT22;24847;48.218;16.414;2022-11-15T20:40:34;8.00;99.90
39103;DHT22;24847;48.218;16.414;2022-11-15T20:45:38;7.90;99.90
39103;DHT22;24847;48.218;16.414;2022-11-15T20:50:43;7.90;99.90
39103;DHT22;24847;48.218;16.414;2022-11-15T20:55:50;7.90;99.90
39103;DHT22;24847;48.218;16.414;2022-11-15T21:00:55;7.80;99.90
39103;DHT22;24847;48.218;16.414;2022-11-15T21:05:58;7.90;99.90
39103;DHT22;24847;48.218;16.414;2022-11-15T21:11:02;7.90;99.90
39103;DHT22;24847;48.218;16.414;2022-11-15T21:16:21;7.90;99.90
39103;DHT22;24847;48.218;16.414;2022-11-15T21:21:24;7.90;99.90
39103;DHT22;24847;48.218;16.414;2022-11-15T21:26:28;8.00;99.90
39103;DHT22;24847;48.218;16.414;2022-11-15T21:31:30;7.90;99.90
39103;DHT22;24847;48.218;16.414;2022-11-15T21:36:33;7.80;99.90
39103;DHT22;24847;48.218;16.414;2022-11-15T21:41:37;7.80;99.90
39103;DHT22;24847;48.218;16.414;2022-11-15T21:46:39;7.70;99.90
39103;DHT22;24847;48.218;16.414;2022-11-15T21:51:42;7.80;99.90
39103;DHT22;24847;48.218;16.414;2022-11-15T21:56:46;7.70;99.90
39103;DHT22;24847;48.218;16.414;2022-11-15T22:01:48;7.70;99.90
39103;DHT22;24847;48.218;16.414;2022-11-15T22:07:07;7.60;99.90
39103;DHT22;24847;48.218;16.414;2022-11-15T22:12:11;7.60;99.90
39103;DHT22;24847;48.218;16.414;2022-11-15T22:17:13;7.60;99.90
39103;DHT22;24847;48.218;16.414;2022-11-15T22:22:16;7.60;99.90
39103;DHT22;24847;48.218;16.414;2022-11-15T22:27:19;7.60;99.90
39103;DHT22;24847;48.218;16.414;2022-11-15T22:32:22;7.70;99.90
39103;DHT22;24847;48.218;16.414;2022-11-15T22:37:24;7.60;99.90
39103;DHT22;24847;48.218;16.414;2022-11-15T22:42:28;7.60;99.90
39103;DHT22;24847;48.218;16.414;2022-11-15T22:47:30;7.70;99.90
39103;DHT22;24847;48.218;16.414;2022-11-15T22:52:32;7.60;99.90
39103;DHT22;24847;48.218;16.414;2022-11-15T22:57:36;7.60;99.90
39103;DHT22;24847;48.218;16.414;2022-11-15T23:02:39;7.70;99.90
39103;DHT22;24847;48.218;16.414;2022-11-15T23:07:41;7.70;99.90
39103;DHT22;24847;48.218;16.414;2022-11-15T23:12:45;7.70;99.90
39103;DHT22;24847;48.218;16.414;2022-11-15T23:18:04;7.70;99.90
39103;DHT22;24847;48.218;16.414;2022-11-15T23:23:07;7.70;99.90
39103;DHT22;24847;48.218;16.414;2022-11-15T23:28:11;7.80;99.90
39103;DHT22;24847;48.218;16.414;2022-11-15T23:33:13;7.70;99.90
39103;DHT22;24847;48.218;16.414;2022-11-15T23:38:33;7.60;99.90
39103;DHT22;24847;48.218;16.414;2022-11-15T23:43:38;7.70;99.90
39103;DHT22;24847;48.218;16.414;2022-11-15T23:48:42;7.70;99.90
39103;DHT22;24847;48.218;16.414;2022-11-15T23:53:44;7.60;99.90
39103;DHT22;24847;48.218;16.414;2022-11-15T23:58:48;7.70;99.90
